Time;durP1;ratioP1;P1;durP2;ratioP2;P2;SDS_P1;SDS_P2;PMS_P1;PMS_P2;Temp;Humidity;BMP_temperature;BMP_pressure;BME280_temperature;BME280_humidity;BME280_pressure;Samples;Min_cycle;Max_cycle;Signal;HPM_P1;HPM_P2
2022/06/10 00:00:40;;;;;;;6.55;4.32;;;;;;;;;;4973106;28;20031;-74
2022/06/10 00:03:06;;;;;;;7.53;5.00;;;;;;;;;;4971723;28;20109;-73
2022/06/10 00:05:36;;;;;;;7.90;4.47;;;;;;;;;;4971776;28;20629;-74
2022/06/10 00:08:06;;;;;;;9.23;4.97;;;;;;;;;;4971244;28;20030;-73
2022/06/10 00:10:35;;;;;;;8.57;4.30;;;;;;;;;;4973177;28;20025;-74
2022/06/10 00:13:01;;;;;;;8.23;4.60;;;;;;;;;;4971275;28;20050;-73
2022/06/10 00:15:27;;;;;;;5.93;4.63;;;;;;;;;;4957688;28;20093;-73
2022/06/10 00:17:53;;;;;;;10.40;5.18;;;;;;;;;;4959406;28;20027;-74
2022/06/10 00:20:21;;;;;;;5.95;4.88;;;;;;;;;;4978606;28;20117;-73
2022/06/10 00:22:51;;;;;;;6.13;4.15;;;;;;;;;;4987829;28;20081;-74
2022/06/10 00:25:20;;;;;;;7.70;4.53;;;;;;;;;;4991008;28;20050;-74
2022/06/10 00:27:46;;;;;;;10.30;4.82;;;;;;;;;;4990258;28;20038;-74
2022/06/10 00:30:13;;;;;;;9.27;4.78;;;;;;;;;;4990349;28;20353;-74
2022/06/10 00:32:39;;;;;;;6.82;4.70;;;;;;;;;;4990371;28;20049;-73
2022/06/10 00:35:05;;;;;;;5.57;4.88;;;;;;;;;;4990331;28;20069;-73
2022/06/10 00:37:31;;;;;;;9.43;4.78;;;;;;;;;;4989986;28;20103;-73
2022/06/10 00:39:57;;;;;;;9.13;4.95;;;;;;;;;;4990203;28;20030;-73
2022/06/10 00:42:23;;;;;;;9.02;5.00;;;;;;;;;;4990245;28;20022;-73
2022/06/10 00:44:52;;;;;;;10.75;4.72;;;;;;;;;;4994167;28;20098;-73
2022/06/10 00:47:39;;;;;;;8.52;5.22;;;;;;;;;;4995435;28;20100;-73
2022/06/10 00:50:25;;;;;;;7.03;4.78;;;;;;;;;;4990019;28;20434;-72
2022/06/10 00:52:56;;;;;;;12.18;4.40;;;;;;;;;;4990209;28;20037;-73
2022/06/10 00:55:28;;;;;;;7.35;4.47;;;;;;;;;;4991003;28;20080;-73
2022/06/10 00:58:04;;;;;;;6.90;4.57;;;;;;;;;;4990174;28;20038;-73
2022/06/10 01:00:31;;;;;;;6.32;5.20;;;;;;;;;;4991330;28;20069;-74
2022/06/10 01:02:56;;;;;;;7.03;4.63;;;;;;;;;;4991235;28;20034;-74
2022/06/10 01:05:25;;;;;;;6.80;4.88;;;;;;;;;;4989716;28;20026;-74
2022/06/10 01:08:01;;;;;;;11.90;5.78;;;;;;;;;;4973621;28;20168;-73
2022/06/10 01:10:31;;;;;;;6.80;5.05;;;;;;;;;;4989794;28;20057;-73
2022/06/10 01:13:00;;;;;;;7.00;4.93;;;;;;;;;;5006037;28;20030;-73
2022/06/10 01:15:35;;;;;;;7.85;4.90;;;;;;;;;;4989809;28;20414;-73
2022/06/10 01:18:01;;;;;;;5.97;4.80;;;;;;;;;;4991046;28;20368;-73
2022/06/10 01:20:49;;;;;;;7.93;4.55;;;;;;;;;;4989476;28;20041;-73
2022/06/10 01:23:14;;;;;;;8.75;4.68;;;;;;;;;;4973557;28;20169;-73
2022/06/10 01:25:55;;;;;;;11.63;4.75;;;;;;;;;;4970282;28;20407;-74
2022/06/10 01:28:33;;;;;;;6.17;5.10;;;;;;;;;;4969934;28;20026;-74
2022/06/10 01:31:20;;;;;;;9.30;5.18;;;;;;;;;;4970072;28;20699;-73
2022/06/10 01:34:12;;;;;;;6.80;4.60;;;;;;;;;;4969949;28;20035;-73
2022/06/10 01:36:57;;;;;;;8.52;4.30;;;;;;;;;;4970002;28;20395;-73
2022/06/10 01:39:34;;;;;;;7.80;4.32;;;;;;;;;;4969605;28;20494;-73
2022/06/10 01:42:12;;;;;;;8.05;4.88;;;;;;;;;;4969820;28;20463;-73
2022/06/10 01:44:40;;;;;;;6.88;4.50;;;;;;;;;;4969913;28;20027;-73
2022/06/10 01:47:21;;;;;;;7.07;4.50;;;;;;;;;;4969712;28;20033;-73
2022/06/10 01:49:46;;;;;;;7.07;4.47;;;;;;;;;;4971176;28;20104;-73
2022/06/10 01:52:24;;;;;;;5.95;4.18;;;;;;;;;;4971327;28;20483;-73
2022/06/10 01:55:02;;;;;;;9.98;4.43;;;;;;;;;;4971262;28;20038;-74
2022/06/10 01:57:38;;;;;;;8.02;4.53;;;;;;;;;;4969616;28;20033;-74
2022/06/10 02:00:11;;;;;;;6.85;4.22;;;;;;;;;;4971068;28;20501;-73
2022/06/10 02:02:41;;;;;;;7.85;4.43;;;;;;;;;;4971061;28;20027;-73
2022/06/10 02:05:15;;;;;;;5.68;4.55;;;;;;;;;;4969258;28;20121;-73
2022/06/10 02:08:01;;;;;;;6.05;4.72;;;;;;;;;;4969738;28;20356;-73
2022/06/10 02:10:33;;;;;;;6.10;4.22;;;;;;;;;;4953942;28;20060;-74
2022/06/10 02:13:11;;;;;;;8.40;4.70;;;;;;;;;;4969301;28;20037;-73
2022/06/10 02:15:40;;;;;;;5.30;4.22;;;;;;;;;;4969795;28;20030;-74
2022/06/10 02:18:35;;;;;;;5.78;4.07;;;;;;;;;;4969521;28;20034;-73
2022/06/10 02:21:06;;;;;;;7.53;4.63;;;;;;;;;;4968891;28;20089;-73
2022/06/10 02:23:37;;;;;;;7.40;4.63;;;;;;;;;;4988408;28;20105;-73
2022/06/10 02:26:04;;;;;;;6.00;4.20;;;;;;;;;;5021728;28;20030;-73
2022/06/10 02:28:38;;;;;;;7.10;4.55;;;;;;;;;;4988700;28;20038;-73
2022/06/10 02:31:09;;;;;;;6.22;4.20;;;;;;;;;;4989208;28;20027;-73
2022/06/10 02:33:37;;;;;;;6.70;4.90;;;;;;;;;;5005093;28;20034;-73
2022/06/10 02:36:40;;;;;;;7.22;4.78;;;;;;;;;;4988836;28;20034;-73
2022/06/10 02:39:31;;;;;;;6.78;4.50;;;;;;;;;;4988843;28;20483;-72
2022/06/10 02:42:27;;;;;;;6.25;4.65;;;;;;;;;;5003077;28;20026;-74
2022/06/10 02:45:00;;;;;;;5.03;4.13;;;;;;;;;;4988372;28;20379;-73
2022/06/10 02:47:52;;;;;;;5.95;4.07;;;;;;;;;;4989617;28;20073;-73
2022/06/10 02:50:18;;;;;;;7.53;4.78;;;;;;;;;;4989777;28;20034;-73
2022/06/10 02:52:46;;;;;;;7.75;4.97;;;;;;;;;;4988523;28;20034;-73
2022/06/10 02:55:18;;;;;;;9.38;4.28;;;;;;;;;;4988369;28;20037;-73
2022/06/10 03:03:37;;;;;;;11.57;5.07;;;;;;;;;;4989710;28;20045;-72
2022/06/10 03:06:34;;;;;;;8.50;4.50;;;;;;;;;;4989785;28;20549;-73
2022/06/10 03:09:25;;;;;;;7.63;4.13;;;;;;;;;;4988157;28;20113;-73
2022/06/10 03:12:06;;;;;;;10.70;5.03;;;;;;;;;;4988327;28;20392;-74
2022/06/10 03:14:52;;;;;;;6.85;4.68;;;;;;;;;;4988427;28;20117;-74
2022/06/10 03:17:43;;;;;;;6.03;4.35;;;;;;;;;;4989463;28;20022;-75
2022/06/10 03:20:18;;;;;;;6.05;4.25;;;;;;;;;;4991225;28;20042;-73
2022/06/10 03:23:08;;;;;;;5.32;4.10;;;;;;;;;;4979293;28;20058;-74
2022/06/10 03:25:51;;;;;;;7.57;4.30;;;;;;;;;;4971652;28;20050;-73
2022/06/10 03:28:23;;;;;;;7.68;5.18;;;;;;;;;;4972056;28;20506;-74
2022/06/10 03:30:52;;;;;;;7.55;4.25;;;;;;;;;;4972188;28;20056;-74
2022/06/10 03:33:27;;;;;;;7.75;4.28;;;;;;;;;;4971864;28;20061;-74
2022/06/10 03:36:04;;;;;;;8.90;4.93;;;;;;;;;;4972108;28;20038;-74
2022/06/10 03:38:37;;;;;;;12.38;4.22;;;;;;;;;;4973328;28;20039;-72
2022/06/10 03:41:04;;;;;;;5.93;4.20;;;;;;;;;;4973616;28;20033;-73
2022/06/10 03:43:39;;;;;;;5.10;4.05;;;;;;;;;;4971672;28;20055;-73
2022/06/10 03:46:09;;;;;;;6.13;4.07;;;;;;;;;;4971744;28;20054;-73
2022/06/10 03:48:39;;;;;;;6.15;4.22;;;;;;;;;;4971502;28;20041;-73
2022/06/10 03:51:07;;;;;;;6.75;4.50;;;;;;;;;;4971814;28;20030;-73
2022/06/10 03:53:35;;;;;;;5.55;4.20;;;;;;;;;;4971586;28;20110;-73
2022/06/10 03:56:00;;;;;;;6.75;4.50;;;;;;;;;;4973636;28;20053;-73
2022/06/10 03:58:26;;;;;;;7.13;4.10;;;;;;;;;;4974760;28;20039;-72
2022/06/10 04:00:51;;;;;;;5.03;4.18;;;;;;;;;;4976618;28;20081;-73
2022/06/10 04:03:17;;;;;;;6.60;3.88;;;;;;;;;;4973736;28;20038;-73
2022/06/10 04:05:43;;;;;;;7.32;3.97;;;;;;;;;;4971874;28;20031;-73
2022/06/10 04:08:09;;;;;;;6.15;4.10;;;;;;;;;;4972732;28;20026;-74
2022/06/10 04:10:35;;;;;;;5.63;3.83;;;;;;;;;;4971232;28;20030;-73
2022/06/10 04:13:00;;;;;;;7.63;3.90;;;;;;;;;;4972768;28;20049;-73
2022/06/10 04:15:27;;;;;;;7.47;4.30;;;;;;;;;;4971143;28;20034;-74
2022/06/10 04:17:57;;;;;;;6.10;3.95;;;;;;;;;;4971223;28;20030;-73
2022/06/10 04:20:26;;;;;;;5.53;4.03;;;;;;;;;;4971143;28;20411;-74
2022/06/10 04:22:54;;;;;;;6.53;4.15;;;;;;;;;;4986638;28;20034;-73
2022/06/10 04:25:20;;;;;;;5.80;3.80;;;;;;;;;;4989955;28;20059;-73
2022/06/10 04:27:46;;;;;;;5.05;3.88;;;;;;;;;;4990732;28;20042;-73
2022/06/10 04:30:21;;;;;;;7.05;4.40;;;;;;;;;;4991683;28;20060;-73
2022/06/10 04:32:47;;;;;;;4.75;4.35;;;;;;;;;;5006936;28;20034;-73
2022/06/10 04:35:14;;;;;;;4.30;3.28;;;;;;;;;;4990010;28;20526;-73
2022/06/10 04:37:40;;;;;;;4.63;3.90;;;;;;;;;;4989971;28;20113;-73
2022/06/10 04:40:06;;;;;;;9.57;3.67;;;;;;;;;;4991344;28;20109;-73
2022/06/10 04:42:32;;;;;;;6.20;3.88;;;;;;;;;;4989844;28;20410;-73
2022/06/10 04:44:58;;;;;;;4.78;3.50;;;;;;;;;;4990010;28;20030;-73
2022/06/10 04:47:24;;;;;;;4.72;3.97;;;;;;;;;;4991185;28;20049;-72
2022/06/10 04:49:49;;;;;;;7.38;4.93;;;;;;;;;;4989825;28;20383;-74
2022/06/10 04:52:16;;;;;;;7.95;3.85;;;;;;;;;;4989939;28;20030;-74
2022/06/10 04:54:41;;;;;;;6.32;4.43;;;;;;;;;;4989995;28;20483;-74
2022/06/10 04:57:07;;;;;;;5.55;3.85;;;;;;;;;;4990139;28;20044;-73
2022/06/10 04:59:33;;;;;;;4.10;3.42;;;;;;;;;;4989098;28;20064;-73
2022/06/10 05:01:59;;;;;;;5.43;4.07;;;;;;;;;;4990806;28;20037;-74
2022/06/10 05:04:27;;;;;;;5.72;3.88;;;;;;;;;;4989557;28;20045;-73
2022/06/10 05:06:53;;;;;;;5.13;3.53;;;;;;;;;;4989800;28;20426;-74
2022/06/10 05:09:19;;;;;;;6.40;3.45;;;;;;;;;;5005625;28;20065;-73
2022/06/10 05:11:45;;;;;;;6.75;3.75;;;;;;;;;;4989588;28;20088;-74
2022/06/10 05:14:10;;;;;;;4.20;3.70;;;;;;;;;;4989793;28;20030;-73
2022/06/10 05:16:36;;;;;;;7.43;3.90;;;;;;;;;;4989691;28;20117;-75
2022/06/10 05:19:03;;;;;;;7.57;3.85;;;;;;;;;;4990161;28;20033;-73
2022/06/10 05:21:28;;;;;;;7.15;4.43;;;;;;;;;;4996132;28;20170;-73
2022/06/10 05:23:54;;;;;;;4.20;3.80;;;;;;;;;;4979399;28;20039;-73
2022/06/10 05:26:19;;;;;;;7.43;3.83;;;;;;;;;;4977390;28;20064;-72
2022/06/10 05:28:46;;;;;;;6.07;3.65;;;;;;;;;;4979979;28;20038;-73
2022/06/10 05:31:13;;;;;;;9.20;4.00;;;;;;;;;;4970775;28;20034;-73
2022/06/10 05:36:23;;;;;;;8.00;4.25;;;;;;;;;;4971633;28;20502;-73
2022/06/10 05:38:49;;;;;;;8.63;5.38;;;;;;;;;;4971056;28;20030;-74
2022/06/10 05:44:00;;;;;;;11.25;5.25;;;;;;;;;;4971477;28;20034;-74
2022/06/10 05:46:26;;;;;;;6.15;4.07;;;;;;;;;;4969629;28;20031;-74
2022/06/10 05:48:51;;;;;;;6.47;4.60;;;;;;;;;;4970879;28;20545;-73
2022/06/10 05:51:18;;;;;;;7.80;3.95;;;;;;;;;;4968967;28;20376;-74
2022/06/10 05:53:44;;;;;;;9.90;4.10;;;;;;;;;;4969372;28;20053;-73
2022/06/10 05:56:10;;;;;;;8.30;3.90;;;;;;;;;;4971726;28;20030;-74
2022/06/10 05:58:37;;;;;;;5.78;3.70;;;;;;;;;;4984510;28;20398;-72
2022/06/10 06:01:02;;;;;;;6.30;4.22;;;;;;;;;;4974367;28;20045;-72
2022/06/10 06:03:28;;;;;;;3.88;3.30;;;;;;;;;;4977677;28;20014;-73
2022/06/10 06:05:54;;;;;;;4.25;3.40;;;;;;;;;;4996519;28;20045;-74
2022/06/10 06:08:19;;;;;;;5.68;4.35;;;;;;;;;;4982603;28;20034;-73
2022/06/10 06:10:46;;;;;;;7.43;3.88;;;;;;;;;;4984925;28;20478;-72
2022/06/10 06:13:12;;;;;;;9.18;3.72;;;;;;;;;;4980322;28;20037;-73
2022/06/10 06:15:39;;;;;;;8.65;4.05;;;;;;;;;;4981687;28;20038;-73
2022/06/10 06:18:06;;;;;;;10.82;3.78;;;;;;;;;;4999970;28;20061;-73
2022/06/10 06:20:32;;;;;;;6.65;3.63;;;;;;;;;;4984649;28;20041;-73
2022/06/10 06:22:57;;;;;;;6.82;4.10;;;;;;;;;;4977020;28;20023;-73
2022/06/10 06:25:23;;;;;;;6.45;4.07;;;;;;;;;;4997736;28;20475;-74
2022/06/10 06:27:49;;;;;;;7.40;4.00;;;;;;;;;;4983150;28;20034;-73
2022/06/10 06:30:31;;;;;;;6.78;3.70;;;;;;;;;;4981961;28;20339;-74
2022/06/10 06:33:04;;;;;;;7.05;3.88;;;;;;;;;;4976549;28;20300;-73
2022/06/10 06:35:38;;;;;;;6.82;3.63;;;;;;;;;;4978751;28;20077;-74
2022/06/10 06:38:05;;;;;;;4.70;4.22;;;;;;;;;;4991953;28;20683;-75
2022/06/10 06:40:31;;;;;;;4.82;4.28;;;;;;;;;;4981285;28;20486;-72
2022/06/10 06:42:57;;;;;;;6.25;4.00;;;;;;;;;;4976058;28;20402;-77
2022/06/10 06:45:23;;;;;;;5.15;4.13;;;;;;;;;;4980276;28;20401;-75
2022/06/10 06:47:51;;;;;;;7.07;4.18;;;;;;;;;;4982516;28;20085;-74
2022/06/10 06:50:23;;;;;;;8.02;4.22;;;;;;;;;;4981655;28;20042;-76
2022/06/10 06:52:49;;;;;;;11.90;4.72;;;;;;;;;;4980729;28;20049;-73
2022/06/10 06:55:15;;;;;;;7.57;3.83;;;;;;;;;;4986162;28;20030;-73
2022/06/10 06:57:41;;;;;;;8.13;4.70;;;;;;;;;;4987318;28;20627;-75
2022/06/10 07:00:08;;;;;;;8.32;3.95;;;;;;;;;;4986837;28;20176;-76
2022/06/10 07:02:36;;;;;;;11.30;5.07;;;;;;;;;;4980722;28;20203;-75
2022/06/10 07:05:03;;;;;;;9.02;4.47;;;;;;;;;;4998906;28;20022;-78
2022/06/10 07:07:40;;;;;;;5.90;4.65;;;;;;;;;;4983547;28;20084;-74
2022/06/10 07:10:06;;;;;;;7.30;3.65;;;;;;;;;;4988000;28;20955;-72
2022/06/10 07:12:31;;;;;;;5.97;4.22;;;;;;;;;;4993895;28;20105;-73
2022/06/10 07:14:57;;;;;;;6.35;4.00;;;;;;;;;;4987668;28;20174;-74
2022/06/10 07:17:23;;;;;;;6.93;4.57;;;;;;;;;;4987974;28;20065;-74
2022/06/10 07:19:51;;;;;;;8.70;4.47;;;;;;;;;;4977743;28;20066;-72
2022/06/10 07:22:17;;;;;;;5.85;4.63;;;;;;;;;;4977480;28;20648;-74
2022/06/10 07:24:43;;;;;;;5.95;4.50;;;;;;;;;;4998534;28;20118;-73
2022/06/10 07:27:09;;;;;;;5.40;4.65;;;;;;;;;;4982027;28;20030;-73
2022/06/10 07:29:37;;;;;;;6.60;4.03;;;;;;;;;;4995299;28;20042;-71
2022/06/10 07:32:02;;;;;;;7.25;3.90;;;;;;;;;;4987354;28;20042;-71
2022/06/10 07:34:28;;;;;;;4.00;3.60;;;;;;;;;;4984221;28;20057;-76
2022/06/10 07:36:53;;;;;;;5.72;3.83;;;;;;;;;;4983198;28;20022;-72
2022/06/10 07:39:19;;;;;;;12.80;4.80;;;;;;;;;;4978297;28;20061;-72
2022/06/10 07:42:02;;;;;;;9.10;4.20;;;;;;;;;;4986391;28;20061;-78
2022/06/10 07:44:30;;;;;;;6.10;4.65;;;;;;;;;;4984370;28;20121;-75
2022/06/10 07:46:58;;;;;;;7.72;4.20;;;;;;;;;;4981086;28;20045;-72
2022/06/10 07:49:25;;;;;;;6.20;3.80;;;;;;;;;;4979341;28;20049;-75
2022/06/10 07:51:51;;;;;;;7.28;4.05;;;;;;;;;;4997383;28;20053;-75
2022/06/10 07:54:17;;;;;;;4.18;3.78;;;;;;;;;;4983548;28;20526;-74
2022/06/10 07:56:42;;;;;;;13.82;6.63;;;;;;;;;;4986855;28;20025;-74
2022/06/10 07:59:08;;;;;;;10.20;5.38;;;;;;;;;;4985533;28;20076;-73
2022/06/10 08:01:34;;;;;;;8.88;4.22;;;;;;;;;;5000811;28;20124;-76
2022/06/10 08:04:00;;;;;;;13.20;4.03;;;;;;;;;;4997743;28;20374;-73
2022/06/10 08:06:27;;;;;;;7.00;2.92;;;;;;;;;;4983761;28;20117;-74
2022/06/10 08:08:55;;;;;;;6.63;2.72;;;;;;;;;;4996494;28;20409;-74
2022/06/10 08:11:21;;;;;;;4.45;2.60;;;;;;;;;;4984804;28;20443;-73
2022/06/10 08:13:47;;;;;;;4.72;2.47;;;;;;;;;;4993340;28;20057;-74
2022/06/10 08:16:14;;;;;;;4.75;2.78;;;;;;;;;;4982886;28;20026;-73
2022/06/10 08:18:43;;;;;;;5.00;2.10;;;;;;;;;;4976127;28;20122;-75
2022/06/10 08:23:53;;;;;;;2.67;1.88;;;;;;;;;;4978577;28;20057;-78
2022/06/10 08:26:20;;;;;;;3.25;2.42;;;;;;;;;;4984508;28;20026;-73
2022/06/10 08:28:46;;;;;;;6.82;2.33;;;;;;;;;;4982596;28;20142;-74
2022/06/10 08:31:12;;;;;;;3.67;1.90;;;;;;;;;;4981948;28;20126;-79
2022/06/10 08:33:39;;;;;;;11.07;2.80;;;;;;;;;;4987754;28;20121;-78
2022/06/10 08:36:05;;;;;;;6.45;2.50;;;;;;;;;;4992461;28;20907;-74
2022/06/10 08:38:31;;;;;;;12.63;2.42;;;;;;;;;;4986056;28;20038;-76
2022/06/10 08:41:19;;;;;;;3.10;1.65;;;;;;;;;;5003737;28;20036;-76
2022/06/10 08:44:11;;;;;;;4.90;2.28;;;;;;;;;;4982003;28;20033;-78
2022/06/10 08:47:14;;;;;;;2.50;1.95;;;;;;;;;;4996496;28;20082;-75
2022/06/10 08:49:57;;;;;;;3.70;2.20;;;;;;;;;;4981502;28;20061;-76
2022/06/10 08:52:43;;;;;;;5.38;2.67;;;;;;;;;;4986192;28;20042;-76
2022/06/10 08:55:30;;;;;;;3.55;2.20;;;;;;;;;;4988741;28;20034;-77
2022/06/10 08:58:00;;;;;;;5.28;2.33;;;;;;;;;;4988845;28;20477;-77
2022/06/10 09:00:33;;;;;;;3.38;2.40;;;;;;;;;;4986333;28;20041;-75
2022/06/10 09:03:29;;;;;;;5.88;3.38;;;;;;;;;;4986032;28;20027;-76
2022/06/10 09:06:03;;;;;;;4.18;2.63;;;;;;;;;;4977025;28;20030;-75
2022/06/10 09:08:37;;;;;;;5.25;2.83;;;;;;;;;;4996868;28;20542;-73
2022/06/10 09:11:20;;;;;;;4.15;3.00;;;;;;;;;;4983950;28;20052;-77
2022/06/10 09:14:03;;;;;;;3.40;2.53;;;;;;;;;;4980686;28;20116;-76
2022/06/10 09:16:31;;;;;;;4.63;2.40;;;;;;;;;;4979718;28;20026;-77
2022/06/10 09:19:18;;;;;;;3.35;2.42;;;;;;;;;;4999055;28;20033;-76
2022/06/10 09:21:53;;;;;;;3.47;2.42;;;;;;;;;;4981586;28;20560;-77
2022/06/10 09:24:59;;;;;;;3.88;2.53;;;;;;;;;;4980366;28;20111;-76
2022/06/10 09:27:36;;;;;;;5.25;2.55;;;;;;;;;;5018341;28;20100;-74
2022/06/10 09:30:24;;;;;;;3.90;2.42;;;;;;;;;;4982852;28;20113;-77
2022/06/10 09:33:11;;;;;;;4.57;2.20;;;;;;;;;;4995453;28;20109;-76
2022/06/10 09:35:40;;;;;;;5.18;2.10;;;;;;;;;;4979867;28;20026;-74
2022/06/10 09:38:19;;;;;;;4.72;2.20;;;;;;;;;;4982575;28;20030;-77
2022/06/10 09:41:02;;;;;;;3.90;1.88;;;;;;;;;;4982993;28;20540;-74
2022/06/10 09:44:04;;;;;;;3.47;2.20;;;;;;;;;;4993863;28;20478;-76
2022/06/10 09:46:39;;;;;;;4.75;1.77;;;;;;;;;;4980709;28;20413;-76
2022/06/10 09:49:16;;;;;;;2.97;2.05;;;;;;;;;;4982812;28;20639;-77
2022/06/10 09:52:13;;;;;;;3.47;1.92;;;;;;;;;;4981615;28;20510;-76
2022/06/10 09:55:16;;;;;;;4.07;2.20;;;;;;;;;;4978747;28;20035;-77
2022/06/10 09:58:06;;;;;;;3.90;1.85;;;;;;;;;;4986216;28;20795;-75
2022/06/10 10:00:57;;;;;;;8.57;1.98;;;;;;;;;;4981010;28;20534;-77
2022/06/10 10:03:41;;;;;;;6.03;2.47;;;;;;;;;;4980822;28;20050;-76
2022/06/10 10:06:07;;;;;;;4.25;2.03;;;;;;;;;;4982255;28;20109;-75
2022/06/10 10:09:10;;;;;;;2.75;1.80;;;;;;;;;;4982803;28;20558;-77
2022/06/10 10:12:12;;;;;;;2.35;1.38;;;;;;;;;;4982075;28;20043;-76
2022/06/10 10:15:03;;;;;;;6.32;1.80;;;;;;;;;;4989652;28;20812;-77
2022/06/10 10:17:47;;;;;;;3.08;1.83;;;;;;;;;;4972956;28;20041;-76
2022/06/10 10:20:24;;;;;;;2.63;2.03;;;;;;;;;;4983418;28;20053;-76
2022/06/10 10:23:10;;;;;;;3.53;2.10;;;;;;;;;;4978767;28;20026;-74
2022/06/10 10:25:38;;;;;;;2.60;1.77;;;;;;;;;;5001354;28;20061;-74
2022/06/10 10:28:17;;;;;;;5.43;3.75;;;;;;;;;;5008000;28;20050;-74
2022/06/10 10:30:59;;;;;;;4.38;2.03;;;;;;;;;;5007142;28;20035;-73
2022/06/10 10:33:25;;;;;;;5.43;2.50;;;;;;;;;;4993968;28;20037;-72
2022/06/10 10:35:56;;;;;;;5.03;2.35;;;;;;;;;;4988922;28;20503;-75
2022/06/10 10:38:41;;;;;;;5.85;1.92;;;;;;;;;;4989678;28;20042;-77
2022/06/10 10:41:45;;;;;;;7.70;1.95;;;;;;;;;;4986068;28;20443;-76
2022/06/10 10:44:33;;;;;;;5.28;1.45;;;;;;;;;;4983533;28;20105;-77
2022/06/10 10:47:09;;;;;;;2.20;1.55;;;;;;;;;;4987130;28;20030;-74
2022/06/10 10:49:44;;;;;;;3.53;1.92;;;;;;;;;;5002649;28;20120;-77
2022/06/10 10:52:29;;;;;;;2.55;1.77;;;;;;;;;;4991315;28;20180;-78
2022/06/10 10:55:21;;;;;;;4.68;1.77;;;;;;;;;;4986993;28;20041;-75
2022/06/10 10:58:14;;;;;;;3.63;2.08;;;;;;;;;;4988882;28;20042;-75
2022/06/10 11:00:44;;;;;;;3.75;2.08;;;;;;;;;;4985914;28;20034;-76
2022/06/10 11:03:29;;;;;;;7.40;2.17;;;;;;;;;;4980995;28;20057;-77
2022/06/10 11:05:58;;;;;;;2.67;1.55;;;;;;;;;;4985775;28;20073;-74
2022/06/10 11:08:39;;;;;;;2.45;1.77;;;;;;;;;;4984962;28;20239;-75
2022/06/10 11:11:27;;;;;;;5.82;1.73;;;;;;;;;;4984444;28;20034;-77
2022/06/10 11:13:56;;;;;;;4.32;2.70;;;;;;;;;;4982226;28;20042;-75
2022/06/10 11:16:27;;;;;;;3.28;1.90;;;;;;;;;;4985003;28;20031;-74
2022/06/10 11:18:57;;;;;;;1.92;1.70;;;;;;;;;;4985789;28;20092;-76
2022/06/10 11:21:27;;;;;;;3.38;2.00;;;;;;;;;;4982227;28;20034;-75
2022/06/10 11:23:55;;;;;;;1.90;1.70;;;;;;;;;;4997961;28;20521;-76
2022/06/10 11:26:24;;;;;;;6.95;2.00;;;;;;;;;;4987280;28;20030;-74
2022/06/10 11:29:00;;;;;;;4.20;2.08;;;;;;;;;;4985579;28;20124;-77
2022/06/10 11:31:30;;;;;;;5.00;1.77;;;;;;;;;;4985819;28;20474;-76
2022/06/10 11:33:58;;;;;;;4.65;1.70;;;;;;;;;;4982988;28;20114;-74
2022/06/10 11:36:36;;;;;;;3.03;1.58;;;;;;;;;;4985808;28;20034;-76
2022/06/10 11:39:25;;;;;;;3.60;1.90;;;;;;;;;;4984683;28;20139;-77
2022/06/10 11:42:08;;;;;;;5.18;2.65;;;;;;;;;;4985381;28;20057;-79
2022/06/10 11:44:47;;;;;;;7.28;1.90;;;;;;;;;;4980929;28;20061;-77
2022/06/10 11:47:24;;;;;;;3.45;1.75;;;;;;;;;;5001260;28;20871;-77
2022/06/10 11:49:57;;;;;;;4.93;2.17;;;;;;;;;;4984279;28;20042;-77
2022/06/10 11:52:37;;;;;;;5.03;2.38;;;;;;;;;;4984714;28;20466;-76
2022/06/10 11:55:22;;;;;;;2.55;1.30;;;;;;;;;;4982707;28;20053;-77
2022/06/10 12:00:49;;;;;;;3.17;1.52;;;;;;;;;;4982993;28;20124;-75
2022/06/10 12:03:27;;;;;;;4.00;1.20;;;;;;;;;;4998368;28;20057;-78
2022/06/10 12:06:03;;;;;;;5.32;1.63;;;;;;;;;;4984798;28;20022;-77
2022/06/10 12:08:40;;;;;;;2.88;1.38;;;;;;;;;;4983119;28;20038;-76
2022/06/10 12:11:25;;;;;;;2.47;1.10;;;;;;;;;;4985762;28;20298;-77
2022/06/10 12:14:03;;;;;;;3.22;1.77;;;;;;;;;;4981327;28;20718;-77
2022/06/10 12:16:30;;;;;;;8.40;2.60;;;;;;;;;;4982807;28;20042;-77
2022/06/10 12:18:58;;;;;;;2.10;1.60;;;;;;;;;;4982966;28;20061;-77
2022/06/10 12:21:28;;;;;;;5.53;2.53;;;;;;;;;;4997880;28;20053;-74
2022/06/10 12:23:54;;;;;;;3.40;2.38;;;;;;;;;;4979920;28;20569;-76
2022/06/10 12:26:46;;;;;;;3.22;2.22;;;;;;;;;;4984771;28;20034;-76
2022/06/10 12:30:10;;;;;;;4.00;1.48;;;;;;;;;;4982993;28;20133;-76
2022/06/10 12:32:50;;;;;;;2.00;1.15;;;;;;;;;;4999328;28;20050;-76
2022/06/10 12:35:36;;;;;;;2.47;1.40;;;;;;;;;;4983731;28;20069;-76
2022/06/10 12:38:20;;;;;;;3.35;1.92;;;;;;;;;;4991699;28;20088;-74
2022/06/10 12:41:14;;;;;;;3.67;1.63;;;;;;;;;;4983324;28;20549;-75
2022/06/10 12:43:45;;;;;;;1.83;1.20;;;;;;;;;;4980440;28;20097;-76
2022/06/10 12:46:33;;;;;;;1.08;0.98;;;;;;;;;;4966005;28;20034;-78
2022/06/10 12:49:08;;;;;;;3.45;1.65;;;;;;;;;;4981279;28;20041;-74
2022/06/10 12:52:07;;;;;;;3.17;1.50;;;;;;;;;;4982168;28;20034;-76
2022/06/10 12:54:52;;;;;;;5.05;1.33;;;;;;;;;;4981588;28;20034;-75
2022/06/10 12:57:38;;;;;;;17.25;11.52;;;;;;;;;;4980803;28;20888;-76
2022/06/10 13:00:22;;;;;;;4.97;2.00;;;;;;;;;;4981925;28;20363;-76
2022/06/10 13:03:16;;;;;;;3.67;1.65;;;;;;;;;;4980793;28;20114;-75
2022/06/10 13:05:47;;;;;;;2.80;1.80;;;;;;;;;;4982689;28;20634;-77
2022/06/10 13:08:30;;;;;;;;;;;;;;;;;;4984790;28;20145;-77
2022/06/10 13:10:58;;;;;;;5.35;1.40;;;;;;;;;;4985980;28;19921;-74
2022/06/10 13:13:25;;;;;;;7.15;2.95;;;;;;;;;;4979139;28;20069;-74
2022/06/10 13:15:53;;;;;;;6.20;3.20;;;;;;;;;;4981672;28;20030;-75
2022/06/10 13:18:25;;;;;;;4.13;1.60;;;;;;;;;;4982054;28;20762;-74
2022/06/10 13:20:52;;;;;;;3.85;1.50;;;;;;;;;;4997958;28;20111;-74
2022/06/10 13:23:21;;;;;;;3.60;1.50;;;;;;;;;;4977660;28;20097;-74
2022/06/10 13:26:12;;;;;;;3.08;1.20;;;;;;;;;;4998731;28;20995;-73
2022/06/10 13:28:42;;;;;;;4.43;1.10;;;;;;;;;;4980521;28;20027;-73
2022/06/10 13:31:16;;;;;;;3.13;1.50;;;;;;;;;;4981792;28;20240;-74
2022/06/10 13:34:24;;;;;;;4.05;1.23;;;;;;;;;;4979982;28;20034;-77
2022/06/10 13:37:07;;;;;;;4.18;1.23;;;;;;;;;;4997303;28;20153;-76
2022/06/10 13:39:38;;;;;;;3.00;1.30;;;;;;;;;;4982605;28;20109;-78
2022/06/10 13:42:06;;;;;;;3.72;1.77;;;;;;;;;;4996533;28;20706;-76
2022/06/10 13:44:34;;;;;;;3.25;1.90;;;;;;;;;;4997198;28;20538;-77
2022/06/10 13:47:05;;;;;;;1.85;1.40;;;;;;;;;;5005242;28;20022;-77
2022/06/10 13:49:45;;;;;;;2.55;1.25;;;;;;;;;;5008764;28;20029;-77
2022/06/10 13:52:31;;;;;;;;;;;;;;;;;;5003651;28;20292;-78
2022/06/10 13:55:23;;;;;;;3.72;1.50;;;;;;;;;;4978457;28;20001;-77
2022/06/10 13:58:07;;;;;;;2.67;1.33;;;;;;;;;;4991761;28;20027;-76
2022/06/10 14:00:50;;;;;;;3.08;1.20;;;;;;;;;;4994102;28;20030;-77
2022/06/10 14:03:25;;;;;;;5.65;1.27;;;;;;;;;;5016835;28;20026;-79
2022/06/10 14:06:02;;;;;;;1.80;1.02;;;;;;;;;;5000191;28;20022;-77
2022/06/10 14:08:31;;;;;;;2.78;1.40;;;;;;;;;;4992172;28;20069;-78
2022/06/10 14:10:56;;;;;;;3.47;0.90;;;;;;;;;;5002805;28;20031;-76
2022/06/10 14:13:24;;;;;;;2.28;1.20;;;;;;;;;;4989008;28;20026;-77
2022/06/10 14:15:58;;;;;;;3.78;1.08;;;;;;;;;;5001377;28;20090;-77
2022/06/10 14:18:27;;;;;;;5.38;2.10;;;;;;;;;;5007174;28;20149;-76
2022/06/10 14:20:56;;;;;;;5.13;1.63;;;;;;;;;;4985263;28;20058;-77
2022/06/10 14:23:29;;;;;;;3.13;1.83;;;;;;;;;;4988507;28;20022;-78
2022/06/10 14:26:18;;;;;;;5.30;1.33;;;;;;;;;;5000304;28;20406;-77
2022/06/10 14:28:44;;;;;;;3.50;1.52;;;;;;;;;;4997420;28;20031;-76
2022/06/10 14:31:30;;;;;;;6.03;1.17;;;;;;;;;;5006466;28;20069;-76
2022/06/10 14:33:58;;;;;;;3.65;1.10;;;;;;;;;;5011192;28;20030;-75
2022/06/10 14:36:28;;;;;;;5.35;1.00;;;;;;;;;;4985995;28;20546;-75
2022/06/10 14:39:09;;;;;;;4.88;1.58;;;;;;;;;;4984724;28;20060;-78
2022/06/10 14:42:08;;;;;;;5.13;1.35;;;;;;;;;;4978858;28;20181;-77
2022/06/10 14:44:53;;;;;;;3.88;1.23;;;;;;;;;;5005223;28;20446;-76
2022/06/10 14:47:30;;;;;;;3.65;1.70;;;;;;;;;;4987127;28;20309;-76
2022/06/10 14:50:15;;;;;;;4.03;1.55;;;;;;;;;;5012091;28;20165;-76
2022/06/10 14:52:49;;;;;;;4.53;2.13;;;;;;;;;;4971905;28;20490;-76
2022/06/10 14:55:29;;;;;;;2.42;1.50;;;;;;;;;;4969206;28;20125;-76
2022/06/10 14:58:02;;;;;;;4.60;2.05;;;;;;;;;;4993409;28;20030;-75
2022/06/10 15:00:33;;;;;;;3.38;1.73;;;;;;;;;;4981734;28;20042;-77
2022/06/10 15:02:59;;;;;;;3.22;1.60;;;;;;;;;;4976301;28;20021;-76
2022/06/10 15:08:14;;;;;;;2.42;1.80;;;;;;;;;;4994789;28;20105;-76
2022/06/10 15:10:44;;;;;;;3.07;1.40;;;;;;;;;;5005721;28;20038;-76
2022/06/10 15:13:19;;;;;;;3.15;1.42;;;;;;;;;;4998021;28;20039;-77
2022/06/10 15:15:45;;;;;;;1.98;1.20;;;;;;;;;;4995328;28;20034;-77
2022/06/10 15:18:16;;;;;;;3.42;2.08;;;;;;;;;;5012647;28;20022;-78
2022/06/10 15:20:42;;;;;;;2.17;1.25;;;;;;;;;;5010481;28;20532;-77
2022/06/10 15:23:14;;;;;;;3.83;1.65;;;;;;;;;;5009031;28;20115;-77
2022/06/10 15:25:48;;;;;;;2.05;1.48;;;;;;;;;;5018869;28;20081;-76
2022/06/10 15:28:15;;;;;;;3.25;1.83;;;;;;;;;;5018818;28;20030;-75
2022/06/10 15:30:43;;;;;;;3.33;2.10;;;;;;;;;;5011926;28;20390;-77
2022/06/10 15:33:11;;;;;;;4.93;4.53;;;;;;;;;;5035317;28;20405;-79
2022/06/10 15:41:22;;;;;;;3.65;2.00;;;;;;;;;;4991284;28;20029;-80
2022/06/10 15:43:48;;;;;;;5.93;2.33;;;;;;;;;;5018268;28;20084;-78
2022/06/10 15:46:20;;;;;;;2.20;1.83;;;;;;;;;;5025531;28;20370;-78
2022/06/10 15:48:47;;;;;;;3.65;2.03;;;;;;;;;;4994577;28;20051;-78